sensor_id;sensor_type;location;lat;lon;timestamp;P1;durP1;ratioP1;P2;durP2;ratioP2
27539;SDS011;15906;52.046;4.724;2022-11-20T00:00:50;18.27;;;10.77;;
27539;SDS011;15906;52.046;4.724;2022-11-20T00:03:16;17.50;;;10.00;;
27539;SDS011;15906;52.046;4.724;2022-11-20T00:05:42;19.33;;;10.70;;
27539;SDS011;15906;52.046;4.724;2022-11-20T00:08:08;19.53;;;10.70;;
27539;SDS011;15906;52.046;4.724;2022-11-20T00:10:35;20.60;;;10.73;;
27539;SDS011;15906;52.046;4.724;2022-11-20T00:13:02;16.63;;;10.30;;
27539;SDS011;15906;52.046;4.724;2022-11-20T00:15:27;19.10;;;11.17;;
27539;SDS011;15906;52.046;4.724;2022-11-20T00:17:53;18.17;;;10.67;;
27539;SDS011;15906;52.046;4.724;2022-11-20T00:20:18;18.77;;;11.60;;
27539;SDS011;15906;52.046;4.724;2022-11-20T00:22:44;22.33;;;12.73;;
27539;SDS011;15906;52.046;4.724;2022-11-20T00:25:09;21.43;;;12.30;;
27539;SDS011;15906;52.046;4.724;2022-11-20T00:27:35;22.60;;;12.80;;
27539;SDS011;15906;52.046;4.724;2022-11-20T00:30:00;21.97;;;13.10;;
27539;SDS011;15906;52.046;4.724;2022-11-20T00:32:26;25.67;;;12.73;;
27539;SDS011;15906;52.046;4.724;2022-11-20T00:34:51;21.37;;;12.83;;
27539;SDS011;15906;52.046;4.724;2022-11-20T00:37:17;19.10;;;12.50;;
27539;SDS011;15906;52.046;4.724;2022-11-20T00:39:42;19.90;;;12.40;;
27539;SDS011;15906;52.046;4.724;2022-11-20T00:42:08;18.93;;;11.97;;
27539;SDS011;15906;52.046;4.724;2022-11-20T00:44:33;19.20;;;11.80;;
27539;SDS011;15906;52.046;4.724;2022-11-20T00:46:58;19.50;;;12.07;;
27539;SDS011;15906;52.046;4.724;2022-11-20T00:49:24;20.77;;;11.20;;
27539;SDS011;15906;52.046;4.724;2022-11-20T00:51:49;20.07;;;11.80;;
27539;SDS011;15906;52.046;4.724;2022-11-20T00:54:15;21.33;;;11.33;;
27539;SDS011;15906;52.046;4.724;2022-11-20T00:56:40;16.57;;;10.57;;
27539;SDS011;15906;52.046;4.724;2022-11-20T00:59:06;18.17;;;11.03;;
27539;SDS011;15906;52.046;4.724;2022-11-20T01:01:33;17.60;;;10.47;;
27539;SDS011;15906;52.046;4.724;2022-11-20T01:03:59;18.20;;;10.70;;
27539;SDS011;15906;52.046;4.724;2022-11-20T01:06:32;19.87;;;11.80;;
27539;SDS011;15906;52.046;4.724;2022-11-20T01:09:01;18.13;;;10.50;;
27539;SDS011;15906;52.046;4.724;2022-11-20T01:11:33;19.70;;;11.03;;
27539;SDS011;15906;52.046;4.724;2022-11-20T01:14:02;19.43;;;10.97;;
27539;SDS011;15906;52.046;4.724;2022-11-20T01:16:31;18.20;;;11.23;;
27539;SDS011;15906;52.046;4.724;2022-11-20T01:18:59;20.87;;;11.27;;
27539;SDS011;15906;52.046;4.724;2022-11-20T01:21:27;18.03;;;11.07;;
27539;SDS011;15906;52.046;4.724;2022-11-20T01:23:53;18.67;;;10.60;;
27539;SDS011;15906;52.046;4.724;2022-11-20T01:26:20;22.07;;;11.10;;
27539;SDS011;15906;52.046;4.724;2022-11-20T01:28:48;17.30;;;10.57;;
27539;SDS011;15906;52.046;4.724;2022-11-20T01:31:21;18.77;;;10.60;;
27539;SDS011;15906;52.046;4.724;2022-11-20T01:33:48;18.30;;;10.17;;
27539;SDS011;15906;52.046;4.724;2022-11-20T01:36:16;16.57;;;10.77;;
27539;SDS011;15906;52.046;4.724;2022-11-20T01:38:43;17.37;;;11.13;;
27539;SDS011;15906;52.046;4.724;2022-11-20T01:41:09;17.43;;;10.93;;
27539;SDS011;15906;52.046;4.724;2022-11-20T01:43:56;18.97;;;10.63;;
27539;SDS011;15906;52.046;4.724;2022-11-20T01:46:23;20.00;;;10.53;;
27539;SDS011;15906;52.046;4.724;2022-11-20T01:48:57;18.50;;;10.80;;
27539;SDS011;15906;52.046;4.724;2022-11-20T01:51:29;17.83;;;10.93;;
27539;SDS011;15906;52.046;4.724;2022-11-20T01:54:05;19.60;;;11.13;;
27539;SDS011;15906;52.046;4.724;2022-11-20T01:56:33;19.50;;;11.07;;
27539;SDS011;15906;52.046;4.724;2022-11-20T01:59:03;19.40;;;10.70;;
27539;SDS011;15906;52.046;4.724;2022-11-20T02:01:32;20.83;;;11.10;;
27539;SDS011;15906;52.046;4.724;2022-11-20T02:03:58;17.37;;;10.37;;
27539;SDS011;15906;52.046;4.724;2022-11-20T02:06:28;17.60;;;10.17;;
27539;SDS011;15906;52.046;4.724;2022-11-20T02:08:59;18.53;;;10.97;;
27539;SDS011;15906;52.046;4.724;2022-11-20T02:11:24;18.27;;;10.63;;
27539;SDS011;15906;52.046;4.724;2022-11-20T02:13:50;18.90;;;10.53;;
27539;SDS011;15906;52.046;4.724;2022-11-20T02:16:18;18.77;;;10.47;;
27539;SDS011;15906;52.046;4.724;2022-11-20T02:18:45;22.10;;;11.70;;
27539;SDS011;15906;52.046;4.724;2022-11-20T02:21:13;20.40;;;11.20;;
27539;SDS011;15906;52.046;4.724;2022-11-20T02:23:59;21.00;;;11.23;;
27539;SDS011;15906;52.046;4.724;2022-11-20T02:26:27;19.73;;;11.27;;
27539;SDS011;15906;52.046;4.724;2022-11-20T02:28:56;18.53;;;10.80;;
27539;SDS011;15906;52.046;4.724;2022-11-20T02:31:22;23.23;;;12.47;;
27539;SDS011;15906;52.046;4.724;2022-11-20T02:33:53;19.00;;;11.23;;
27539;SDS011;15906;52.046;4.724;2022-11-20T02:36:19;17.60;;;10.93;;
27539;SDS011;15906;52.046;4.724;2022-11-20T02:38:45;20.27;;;11.87;;
27539;SDS011;15906;52.046;4.724;2022-11-20T02:41:11;21.43;;;11.93;;
27539;SDS011;15906;52.046;4.724;2022-11-20T02:43:36;21.27;;;11.53;;
27539;SDS011;15906;52.046;4.724;2022-11-20T02:46:01;23.00;;;12.60;;
27539;SDS011;15906;52.046;4.724;2022-11-20T02:48:27;24.23;;;12.33;;
27539;SDS011;15906;52.046;4.724;2022-11-20T02:50:52;24.47;;;13.13;;
27539;SDS011;15906;52.046;4.724;2022-11-20T02:53:18;20.80;;;11.57;;
27539;SDS011;15906;52.046;4.724;2022-11-20T02:55:44;20.47;;;11.90;;
27539;SDS011;15906;52.046;4.724;2022-11-20T02:58:09;19.20;;;11.43;;
27539;SDS011;15906;52.046;4.724;2022-11-20T03:00:35;20.13;;;11.53;;
27539;SDS011;15906;52.046;4.724;2022-11-20T03:03:01;21.27;;;11.43;;
27539;SDS011;15906;52.046;4.724;2022-11-20T03:05:26;18.73;;;11.23;;
27539;SDS011;15906;52.046;4.724;2022-11-20T03:07:52;18.80;;;11.87;;
27539;SDS011;15906;52.046;4.724;2022-11-20T03:10:17;22.73;;;12.07;;
27539;SDS011;15906;52.046;4.724;2022-11-20T03:12:43;24.80;;;12.30;;
27539;SDS011;15906;52.046;4.724;2022-11-20T03:15:08;23.13;;;11.80;;
27539;SDS011;15906;52.046;4.724;2022-11-20T03:17:34;21.03;;;12.20;;
27539;SDS011;15906;52.046;4.724;2022-11-20T03:20:00;19.97;;;11.77;;
27539;SDS011;15906;52.046;4.724;2022-11-20T03:22:25;21.90;;;12.10;;
27539;SDS011;15906;52.046;4.724;2022-11-20T03:24:54;19.70;;;11.77;;
27539;SDS011;15906;52.046;4.724;2022-11-20T03:27:20;19.43;;;12.20;;
27539;SDS011;15906;52.046;4.724;2022-11-20T03:29:45;19.97;;;11.00;;
27539;SDS011;15906;52.046;4.724;2022-11-20T03:32:11;20.23;;;11.80;;
27539;SDS011;15906;52.046;4.724;2022-11-20T03:34:36;23.03;;;11.73;;
27539;SDS011;15906;52.046;4.724;2022-11-20T03:37:02;21.03;;;11.80;;
27539;SDS011;15906;52.046;4.724;2022-11-20T03:39:27;20.00;;;11.27;;
27539;SDS011;15906;52.046;4.724;2022-11-20T03:41:53;22.63;;;11.90;;
27539;SDS011;15906;52.046;4.724;2022-11-20T03:44:20;19.77;;;11.40;;
27539;SDS011;15906;52.046;4.724;2022-11-20T03:46:46;20.47;;;11.97;;
27539;SDS011;15906;52.046;4.724;2022-11-20T03:49:11;17.20;;;10.87;;
27539;SDS011;15906;52.046;4.724;2022-11-20T03:51:37;18.83;;;11.83;;
27539;SDS011;15906;52.046;4.724;2022-11-20T03:54:03;22.17;;;12.20;;
27539;SDS011;15906;52.046;4.724;2022-11-20T03:56:34;19.07;;;12.13;;
27539;SDS011;15906;52.046;4.724;2022-11-20T03:59:02;20.40;;;12.10;;
27539;SDS011;15906;52.046;4.724;2022-11-20T04:01:29;20.83;;;11.57;;
27539;SDS011;15906;52.046;4.724;2022-11-20T04:03:58;17.27;;;11.53;;
27539;SDS011;15906;52.046;4.724;2022-11-20T04:06:25;19.70;;;11.47;;
27539;SDS011;15906;52.046;4.724;2022-11-20T04:08:57;22.13;;;12.87;;
27539;SDS011;15906;52.046;4.724;2022-11-20T04:11:24;21.70;;;11.77;;
27539;SDS011;15906;52.046;4.724;2022-11-20T04:13:58;19.30;;;11.30;;
27539;SDS011;15906;52.046;4.724;2022-11-20T04:16:29;19.67;;;12.27;;
27539;SDS011;15906;52.046;4.724;2022-11-20T04:18:58;20.57;;;11.90;;
27539;SDS011;15906;52.046;4.724;2022-11-20T04:21:25;18.80;;;11.40;;
27539;SDS011;15906;52.046;4.724;2022-11-20T04:23:51;21.57;;;11.60;;
27539;SDS011;15906;52.046;4.724;2022-11-20T04:26:21;17.63;;;11.70;;
27539;SDS011;15906;52.046;4.724;2022-11-20T04:28:48;19.60;;;11.40;;
27539;SDS011;15906;52.046;4.724;2022-11-20T04:31:15;21.27;;;12.10;;
27539;SDS011;15906;52.046;4.724;2022-11-20T04:33:42;22.70;;;12.77;;
27539;SDS011;15906;52.046;4.724;2022-11-20T04:36:15;21.23;;;11.93;;
27539;SDS011;15906;52.046;4.724;2022-11-20T04:38:42;23.00;;;12.90;;
27539;SDS011;15906;52.046;4.724;2022-11-20T04:41:08;20.70;;;11.80;;
27539;SDS011;15906;52.046;4.724;2022-11-20T04:43:39;23.97;;;13.23;;
27539;SDS011;15906;52.046;4.724;2022-11-20T04:46:04;23.73;;;13.33;;
27539;SDS011;15906;52.046;4.724;2022-11-20T04:48:30;23.30;;;12.43;;
27539;SDS011;15906;52.046;4.724;2022-11-20T04:50:55;23.43;;;13.27;;
27539;SDS011;15906;52.046;4.724;2022-11-20T04:53:21;22.33;;;13.00;;
27539;SDS011;15906;52.046;4.724;2022-11-20T04:55:48;24.10;;;12.77;;
27539;SDS011;15906;52.046;4.724;2022-11-20T04:58:13;23.00;;;13.57;;
27539;SDS011;15906;52.046;4.724;2022-11-20T05:00:39;23.73;;;12.27;;
27539;SDS011;15906;52.046;4.724;2022-11-20T05:03:05;24.67;;;13.13;;
27539;SDS011;15906;52.046;4.724;2022-11-20T05:05:30;25.90;;;14.03;;
27539;SDS011;15906;52.046;4.724;2022-11-20T05:07:56;24.57;;;13.70;;
27539;SDS011;15906;52.046;4.724;2022-11-20T05:10:23;24.23;;;13.00;;
27539;SDS011;15906;52.046;4.724;2022-11-20T05:12:52;22.87;;;12.57;;
27539;SDS011;15906;52.046;4.724;2022-11-20T05:15:18;24.47;;;13.50;;
27539;SDS011;15906;52.046;4.724;2022-11-20T05:17:50;26.93;;;13.73;;
27539;SDS011;15906;52.046;4.724;2022-11-20T05:20:16;22.53;;;13.43;;
27539;SDS011;15906;52.046;4.724;2022-11-20T05:22:44;23.43;;;13.67;;
27539;SDS011;15906;52.046;4.724;2022-11-20T05:25:10;27.80;;;14.20;;
27539;SDS011;15906;52.046;4.724;2022-11-20T05:27:36;23.53;;;13.60;;
27539;SDS011;15906;52.046;4.724;2022-11-20T05:30:03;26.03;;;14.33;;
27539;SDS011;15906;52.046;4.724;2022-11-20T05:32:29;22.40;;;13.83;;
27539;SDS011;15906;52.046;4.724;2022-11-20T05:34:55;23.43;;;14.27;;
27539;SDS011;15906;52.046;4.724;2022-11-20T05:37:20;24.53;;;12.87;;
27539;SDS011;15906;52.046;4.724;2022-11-20T05:39:46;22.67;;;12.20;;
27539;SDS011;15906;52.046;4.724;2022-11-20T05:42:11;23.60;;;13.47;;
27539;SDS011;15906;52.046;4.724;2022-11-20T05:44:55;26.57;;;13.40;;
27539;SDS011;15906;52.046;4.724;2022-11-20T05:47:25;22.47;;;12.80;;
27539;SDS011;15906;52.046;4.724;2022-11-20T05:49:52;23.67;;;12.57;;
27539;SDS011;15906;52.046;4.724;2022-11-20T05:52:18;26.03;;;13.20;;
27539;SDS011;15906;52.046;4.724;2022-11-20T05:54:44;26.07;;;14.47;;
27539;SDS011;15906;52.046;4.724;2022-11-20T05:57:09;27.33;;;14.00;;
27539;SDS011;15906;52.046;4.724;2022-11-20T05:59:35;27.67;;;14.77;;
27539;SDS011;15906;52.046;4.724;2022-11-20T06:02:00;28.07;;;13.77;;
27539;SDS011;15906;52.046;4.724;2022-11-20T06:04:25;30.13;;;14.37;;
27539;SDS011;15906;52.046;4.724;2022-11-20T06:06:51;27.23;;;14.90;;
27539;SDS011;15906;52.046;4.724;2022-11-20T06:12:02;25.67;;;14.10;;
27539;SDS011;15906;52.046;4.724;2022-11-20T06:14:37;29.23;;;15.70;;
27539;SDS011;15906;52.046;4.724;2022-11-20T06:17:02;27.23;;;15.00;;
27539;SDS011;15906;52.046;4.724;2022-11-20T06:19:28;26.10;;;15.23;;
27539;SDS011;15906;52.046;4.724;2022-11-20T06:21:53;30.50;;;15.77;;
27539;SDS011;15906;52.046;4.724;2022-11-20T06:24:18;24.97;;;14.73;;
27539;SDS011;15906;52.046;4.724;2022-11-20T06:26:50;28.57;;;16.00;;
27539;SDS011;15906;52.046;4.724;2022-11-20T06:29:16;29.90;;;15.37;;
27539;SDS011;15906;52.046;4.724;2022-11-20T06:31:41;26.23;;;14.53;;
27539;SDS011;15906;52.046;4.724;2022-11-20T06:34:07;26.13;;;15.13;;
27539;SDS011;15906;52.046;4.724;2022-11-20T06:36:33;25.27;;;15.03;;
27539;SDS011;15906;52.046;4.724;2022-11-20T06:38:59;24.67;;;14.47;;
27539;SDS011;15906;52.046;4.724;2022-11-20T06:41:25;26.93;;;15.53;;
27539;SDS011;15906;52.046;4.724;2022-11-20T06:43:51;27.77;;;14.47;;
27539;SDS011;15906;52.046;4.724;2022-11-20T06:46:17;31.67;;;15.20;;
27539;SDS011;15906;52.046;4.724;2022-11-20T06:48:44;29.50;;;15.17;;
27539;SDS011;15906;52.046;4.724;2022-11-20T06:51:11;25.70;;;15.30;;
27539;SDS011;15906;52.046;4.724;2022-11-20T06:53:36;27.07;;;15.33;;
27539;SDS011;15906;52.046;4.724;2022-11-20T06:56:02;28.47;;;15.33;;
27539;SDS011;15906;52.046;4.724;2022-11-20T06:58:29;31.73;;;16.73;;
27539;SDS011;15906;52.046;4.724;2022-11-20T07:00:59;26.40;;;14.93;;
27539;SDS011;15906;52.046;4.724;2022-11-20T07:03:26;28.30;;;16.23;;
27539;SDS011;15906;52.046;4.724;2022-11-20T07:06:02;28.13;;;15.43;;
27539;SDS011;15906;52.046;4.724;2022-11-20T07:08:28;30.23;;;15.17;;
27539;SDS011;15906;52.046;4.724;2022-11-20T07:10:56;28.90;;;16.17;;
27539;SDS011;15906;52.046;4.724;2022-11-20T07:13:27;30.40;;;15.93;;
27539;SDS011;15906;52.046;4.724;2022-11-20T07:15:53;33.23;;;16.03;;
27539;SDS011;15906;52.046;4.724;2022-11-20T07:18:19;31.30;;;16.30;;
27539;SDS011;15906;52.046;4.724;2022-11-20T07:20:44;28.00;;;15.27;;
27539;SDS011;15906;52.046;4.724;2022-11-20T07:23:10;30.20;;;15.07;;
27539;SDS011;15906;52.046;4.724;2022-11-20T07:25:35;24.90;;;14.97;;
27539;SDS011;15906;52.046;4.724;2022-11-20T07:28:01;30.90;;;16.40;;
27539;SDS011;15906;52.046;4.724;2022-11-20T07:30:27;26.13;;;15.03;;
27539;SDS011;15906;52.046;4.724;2022-11-20T07:32:53;27.03;;;15.50;;
27539;SDS011;15906;52.046;4.724;2022-11-20T07:35:20;26.07;;;14.80;;
27539;SDS011;15906;52.046;4.724;2022-11-20T07:37:46;28.53;;;15.67;;
27539;SDS011;15906;52.046;4.724;2022-11-20T07:40:15;24.43;;;14.43;;
27539;SDS011;15906;52.046;4.724;2022-11-20T07:42:51;28.40;;;15.17;;
27539;SDS011;15906;52.046;4.724;2022-11-20T07:45:18;27.77;;;16.80;;
27539;SDS011;15906;52.046;4.724;2022-11-20T07:47:44;30.47;;;15.83;;
27539;SDS011;15906;52.046;4.724;2022-11-20T07:50:10;31.90;;;15.77;;
27539;SDS011;15906;52.046;4.724;2022-11-20T07:52:36;27.63;;;14.27;;
27539;SDS011;15906;52.046;4.724;2022-11-20T07:55:02;28.93;;;15.57;;
27539;SDS011;15906;52.046;4.724;2022-11-20T07:57:27;25.90;;;15.57;;
27539;SDS011;15906;52.046;4.724;2022-11-20T07:59:53;28.63;;;16.00;;
27539;SDS011;15906;52.046;4.724;2022-11-20T08:02:18;29.60;;;16.60;;
27539;SDS011;15906;52.046;4.724;2022-11-20T08:04:43;28.97;;;16.10;;
27539;SDS011;15906;52.046;4.724;2022-11-20T08:07:09;28.40;;;16.63;;
27539;SDS011;15906;52.046;4.724;2022-11-20T08:09:34;26.13;;;15.37;;
27539;SDS011;15906;52.046;4.724;2022-11-20T08:12:00;26.50;;;16.03;;
27539;SDS011;15906;52.046;4.724;2022-11-20T08:14:44;29.57;;;17.23;;
27539;SDS011;15906;52.046;4.724;2022-11-20T08:17:10;31.43;;;17.30;;
27539;SDS011;15906;52.046;4.724;2022-11-20T08:19:35;31.97;;;17.43;;
27539;SDS011;15906;52.046;4.724;2022-11-20T08:22:01;35.13;;;16.97;;
27539;SDS011;15906;52.046;4.724;2022-11-20T08:24:26;31.00;;;16.60;;
27539;SDS011;15906;52.046;4.724;2022-11-20T08:26:52;30.27;;;17.67;;
27539;SDS011;15906;52.046;4.724;2022-11-20T08:29:18;28.63;;;16.93;;
27539;SDS011;15906;52.046;4.724;2022-11-20T08:31:44;31.27;;;17.57;;
27539;SDS011;15906;52.046;4.724;2022-11-20T08:34:09;28.93;;;16.97;;
27539;SDS011;15906;52.046;4.724;2022-11-20T08:36:35;30.17;;;17.67;;
27539;SDS011;15906;52.046;4.724;2022-11-20T08:39:01;30.43;;;17.20;;
27539;SDS011;15906;52.046;4.724;2022-11-20T08:41:27;32.17;;;18.53;;
27539;SDS011;15906;52.046;4.724;2022-11-20T08:43:56;32.00;;;17.40;;
27539;SDS011;15906;52.046;4.724;2022-11-20T08:46:24;33.37;;;17.50;;
27539;SDS011;15906;52.046;4.724;2022-11-20T08:48:50;30.57;;;17.03;;
27539;SDS011;15906;52.046;4.724;2022-11-20T08:51:17;33.03;;;17.27;;
27539;SDS011;15906;52.046;4.724;2022-11-20T08:53:43;33.53;;;18.37;;
27539;SDS011;15906;52.046;4.724;2022-11-20T08:56:08;29.93;;;18.20;;
27539;SDS011;15906;52.046;4.724;2022-11-20T08:58:37;33.43;;;18.87;;
27539;SDS011;15906;52.046;4.724;2022-11-20T09:01:03;33.70;;;19.30;;
27539;SDS011;15906;52.046;4.724;2022-11-20T09:03:29;34.87;;;18.97;;
27539;SDS011;15906;52.046;4.724;2022-11-20T09:05:58;31.53;;;18.37;;
27539;SDS011;15906;52.046;4.724;2022-11-20T09:08:25;30.63;;;18.70;;
27539;SDS011;15906;52.046;4.724;2022-11-20T09:10:51;32.33;;;18.80;;
27539;SDS011;15906;52.046;4.724;2022-11-20T09:13:17;37.53;;;18.93;;
27539;SDS011;15906;52.046;4.724;2022-11-20T09:15:43;36.40;;;18.90;;
27539;SDS011;15906;52.046;4.724;2022-11-20T09:18:08;32.97;;;19.03;;
27539;SDS011;15906;52.046;4.724;2022-11-20T09:20:34;29.87;;;17.80;;
27539;SDS011;15906;52.046;4.724;2022-11-20T09:23:00;32.03;;;19.50;;
27539;SDS011;15906;52.046;4.724;2022-11-20T09:25:25;30.13;;;17.80;;
27539;SDS011;15906;52.046;4.724;2022-11-20T09:27:54;32.10;;;18.53;;
27539;SDS011;15906;52.046;4.724;2022-11-20T09:30:21;31.57;;;19.10;;
27539;SDS011;15906;52.046;4.724;2022-11-20T09:32:46;32.30;;;18.40;;
27539;SDS011;15906;52.046;4.724;2022-11-20T09:35:12;32.07;;;19.47;;
27539;SDS011;15906;52.046;4.724;2022-11-20T09:37:37;32.70;;;19.00;;
27539;SDS011;15906;52.046;4.724;2022-11-20T09:40:03;30.73;;;18.53;;
27539;SDS011;15906;52.046;4.724;2022-11-20T09:42:41;33.17;;;19.40;;
27539;SDS011;15906;52.046;4.724;2022-11-20T09:45:21;33.07;;;18.53;;
27539;SDS011;15906;52.046;4.724;2022-11-20T09:50:47;36.07;;;19.83;;
27539;SDS011;15906;52.046;4.724;2022-11-20T09:56:31;34.43;;;18.83;;
27539;SDS011;15906;52.046;4.724;2022-11-20T09:58:59;36.73;;;19.87;;
27539;SDS011;15906;52.046;4.724;2022-11-20T10:01:30;32.93;;;18.40;;
27539;SDS011;15906;52.046;4.724;2022-11-20T10:06:53;31.77;;;20.57;;
27539;SDS011;15906;52.046;4.724;2022-11-20T10:09:30;32.23;;;19.27;;
27539;SDS011;15906;52.046;4.724;2022-11-20T10:12:03;35.17;;;20.17;;
27539;SDS011;15906;52.046;4.724;2022-11-20T10:14:57;33.80;;;20.50;;
27539;SDS011;15906;52.046;4.724;2022-11-20T10:17:48;34.20;;;20.50;;
27539;SDS011;15906;52.046;4.724;2022-11-20T10:20:45;35.63;;;22.13;;
27539;SDS011;15906;52.046;4.724;2022-11-20T10:23:52;30.37;;;19.33;;
27539;SDS011;15906;52.046;4.724;2022-11-20T10:29:32;34.27;;;20.97;;
27539;SDS011;15906;52.046;4.724;2022-11-20T10:32:20;34.80;;;20.60;;
27539;SDS011;15906;52.046;4.724;2022-11-20T10:35:05;40.67;;;22.07;;
27539;SDS011;15906;52.046;4.724;2022-11-20T10:37:38;37.23;;;23.23;;
27539;SDS011;15906;52.046;4.724;2022-11-20T10:42:44;44.50;;;24.73;;
27539;SDS011;15906;52.046;4.724;2022-11-20T10:47:49;37.67;;;23.00;;
27539;SDS011;15906;52.046;4.724;2022-11-20T10:50:20;38.20;;;23.63;;
27539;SDS011;15906;52.046;4.724;2022-11-20T10:55:58;40.17;;;22.27;;
27539;SDS011;15906;52.046;4.724;2022-11-20T10:58:45;40.57;;;24.53;;
27539;SDS011;15906;52.046;4.724;2022-11-20T11:01:24;38.03;;;22.83;;
27539;SDS011;15906;52.046;4.724;2022-11-20T11:03:51;39.80;;;22.87;;
27539;SDS011;15906;52.046;4.724;2022-11-20T11:06:37;47.13;;;27.93;;
27539;SDS011;15906;52.046;4.724;2022-11-20T11:09:15;43.90;;;25.37;;
27539;SDS011;15906;52.046;4.724;2022-11-20T11:11:44;46.10;;;28.97;;
27539;SDS011;15906;52.046;4.724;2022-11-20T11:14:11;50.27;;;29.57;;
27539;SDS011;15906;52.046;4.724;2022-11-20T11:16:52;50.90;;;29.83;;
27539;SDS011;15906;52.046;4.724;2022-11-20T11:19:19;49.43;;;28.80;;
27539;SDS011;15906;52.046;4.724;2022-11-20T11:21:46;42.73;;;25.83;;
27539;SDS011;15906;52.046;4.724;2022-11-20T11:24:19;51.70;;;28.87;;
27539;SDS011;15906;52.046;4.724;2022-11-20T11:27:11;41.40;;;24.83;;
27539;SDS011;15906;52.046;4.724;2022-11-20T11:29:38;48.60;;;28.17;;
27539;SDS011;15906;52.046;4.724;2022-11-20T11:32:07;47.40;;;26.00;;
27539;SDS011;15906;52.046;4.724;2022-11-20T11:34:36;49.77;;;28.93;;
27539;SDS011;15906;52.046;4.724;2022-11-20T11:37:02;51.93;;;29.17;;
27539;SDS011;15906;52.046;4.724;2022-11-20T11:39:29;57.67;;;30.33;;
27539;SDS011;15906;52.046;4.724;2022-11-20T11:41:57;46.67;;;27.37;;
27539;SDS011;15906;52.046;4.724;2022-11-20T11:44:32;50.67;;;27.17;;
27539;SDS011;15906;52.046;4.724;2022-11-20T11:47:23;56.33;;;30.17;;
27539;SDS011;15906;52.046;4.724;2022-11-20T11:50:07;47.87;;;26.70;;
27539;SDS011;15906;52.046;4.724;2022-11-20T11:52:48;51.07;;;26.83;;
27539;SDS011;15906;52.046;4.724;2022-11-20T11:55:42;52.43;;;28.67;;
27539;SDS011;15906;52.046;4.724;2022-11-20T11:58:33;50.53;;;27.30;;
27539;SDS011;15906;52.046;4.724;2022-11-20T12:04:04;45.20;;;24.33;;
27539;SDS011;15906;52.046;4.724;2022-11-20T12:06:36;53.87;;;26.93;;
27539;SDS011;15906;52.046;4.724;2022-11-20T12:09:11;49.53;;;26.87;;
27539;SDS011;15906;52.046;4.724;2022-11-20T12:11:43;52.03;;;26.27;;
27539;SDS011;15906;52.046;4.724;2022-11-20T12:14:42;57.20;;;28.97;;
27539;SDS011;15906;52.046;4.724;2022-11-20T12:17:11;80.90;;;42.40;;
27539;SDS011;15906;52.046;4.724;2022-11-20T12:19:38;59.13;;;30.67;;
27539;SDS011;15906;52.046;4.724;2022-11-20T12:22:06;54.37;;;28.37;;
27539;SDS011;15906;52.046;4.724;2022-11-20T12:27:58;51.97;;;26.60;;
27539;SDS011;15906;52.046;4.724;2022-11-20T12:31:02;55.47;;;28.23;;
27539;SDS011;15906;52.046;4.724;2022-11-20T12:33:41;65.43;;;29.63;;
27539;SDS011;15906;52.046;4.724;2022-11-20T12:36:23;47.20;;;26.13;;
27539;SDS011;15906;52.046;4.724;2022-11-20T12:39:07;59.97;;;32.40;;
27539;SDS011;15906;52.046;4.724;2022-11-20T12:47:49;52.93;;;27.73;;
27539;SDS011;15906;52.046;4.724;2022-11-20T12:50:27;50.23;;;28.33;;
27539;SDS011;15906;52.046;4.724;2022-11-20T12:53:03;50.80;;;27.27;;
27539;SDS011;15906;52.046;4.724;2022-11-20T12:58:31;57.93;;;29.80;;
27539;SDS011;15906;52.046;4.724;2022-11-20T13:01:37;52.27;;;27.40;;
27539;SDS011;15906;52.046;4.724;2022-11-20T13:07:23;62.43;;;29.43;;
27539;SDS011;15906;52.046;4.724;2022-11-20T13:09:50;55.13;;;28.10;;
27539;SDS011;15906;52.046;4.724;2022-11-20T13:14:52;56.93;;;26.47;;
27539;SDS011;15906;52.046;4.724;2022-11-20T13:20:14;51.07;;;27.93;;
27539;SDS011;15906;52.046;4.724;2022-11-20T13:22:43;54.80;;;29.87;;
27539;SDS011;15906;52.046;4.724;2022-11-20T13:25:09;56.90;;;30.60;;
27539;SDS011;15906;52.046;4.724;2022-11-20T13:27:35;62.60;;;32.33;;
27539;SDS011;15906;52.046;4.724;2022-11-20T13:30:15;61.90;;;31.07;;
27539;SDS011;15906;52.046;4.724;2022-11-20T13:35:24;67.40;;;34.33;;
27539;SDS011;15906;52.046;4.724;2022-11-20T13:38:01;60.53;;;31.27;;
27539;SDS011;15906;52.046;4.724;2022-11-20T13:40:53;60.40;;;29.63;;
27539;SDS011;15906;52.046;4.724;2022-11-20T13:43:28;43.00;;;22.70;;
27539;SDS011;15906;52.046;4.724;2022-11-20T13:46:05;56.73;;;29.73;;
27539;SDS011;15906;52.046;4.724;2022-11-20T13:48:42;60.80;;;31.47;;
27539;SDS011;15906;52.046;4.724;2022-11-20T13:54:17;64.50;;;30.57;;
27539;SDS011;15906;52.046;4.724;2022-11-20T14:01:55;68.37;;;33.57;;
27539;SDS011;15906;52.046;4.724;2022-11-20T14:04:33;71.93;;;34.00;;
27539;SDS011;15906;52.046;4.724;2022-11-20T14:07:01;66.83;;;33.53;;
27539;SDS011;15906;52.046;4.724;2022-11-20T14:09:31;69.93;;;32.10;;
27539;SDS011;15906;52.046;4.724;2022-11-20T14:11:59;71.60;;;34.80;;
27539;SDS011;15906;52.046;4.724;2022-11-20T14:14:25;73.70;;;32.77;;
27539;SDS011;15906;52.046;4.724;2022-11-20T14:16:53;72.17;;;34.33;;
27539;SDS011;15906;52.046;4.724;2022-11-20T14:19:48;70.50;;;34.23;;
27539;SDS011;15906;52.046;4.724;2022-11-20T14:24:49;76.97;;;33.40;;
27539;SDS011;15906;52.046;4.724;2022-11-20T14:27:26;79.70;;;35.93;;
27539;SDS011;15906;52.046;4.724;2022-11-20T14:29:51;70.67;;;33.97;;
27539;SDS011;15906;52.046;4.724;2022-11-20T14:32:17;82.30;;;36.23;;
27539;SDS011;15906;52.046;4.724;2022-11-20T14:34:45;76.83;;;37.23;;
27539;SDS011;15906;52.046;4.724;2022-11-20T14:37:17;86.87;;;39.33;;
27539;SDS011;15906;52.046;4.724;2022-11-20T14:39:52;76.77;;;37.87;;
27539;SDS011;15906;52.046;4.724;2022-11-20T14:42:23;84.37;;;40.67;;
27539;SDS011;15906;52.046;4.724;2022-11-20T14:44:54;83.50;;;36.93;;
27539;SDS011;15906;52.046;4.724;2022-11-20T14:47:23;86.73;;;39.57;;
27539;SDS011;15906;52.046;4.724;2022-11-20T14:49:51;73.87;;;35.37;;
27539;SDS011;15906;52.046;4.724;2022-11-20T14:52:19;74.20;;;35.87;;
27539;SDS011;15906;52.046;4.724;2022-11-20T14:54:47;84.37;;;36.67;;
27539;SDS011;15906;52.046;4.724;2022-11-20T14:59:47;78.87;;;38.23;;
27539;SDS011;15906;52.046;4.724;2022-11-20T15:02:12;80.87;;;39.50;;
27539;SDS011;15906;52.046;4.724;2022-11-20T15:04:48;87.03;;;41.40;;
27539;SDS011;15906;52.046;4.724;2022-11-20T15:07:24;88.00;;;38.63;;
27539;SDS011;15906;52.046;4.724;2022-11-20T15:10:00;81.60;;;39.93;;
27539;SDS011;15906;52.046;4.724;2022-11-20T15:12:31;78.43;;;39.03;;
27539;SDS011;15906;52.046;4.724;2022-11-20T15:14:58;92.20;;;41.03;;
27539;SDS011;15906;52.046;4.724;2022-11-20T15:17:25;83.43;;;40.67;;
27539;SDS011;15906;52.046;4.724;2022-11-20T15:19:51;96.63;;;45.17;;
27539;SDS011;15906;52.046;4.724;2022-11-20T15:22:17;83.73;;;37.70;;
27539;SDS011;15906;52.046;4.724;2022-11-20T15:24:43;83.97;;;39.30;;
27539;SDS011;15906;52.046;4.724;2022-11-20T15:27:10;93.17;;;42.30;;
27539;SDS011;15906;52.046;4.724;2022-11-20T15:29:35;85.33;;;40.27;;
27539;SDS011;15906;52.046;4.724;2022-11-20T15:32:01;79.43;;;39.00;;
27539;SDS011;15906;52.046;4.724;2022-11-20T15:34:27;77.57;;;37.43;;
27539;SDS011;15906;52.046;4.724;2022-11-20T15:36:53;88.77;;;40.10;;